createdAt,value
2018-03-03T00:02:22.012Z,50.50
2018-03-03T00:04:49.543Z,50.60
2018-03-03T00:07:17.110Z,50.60
2018-03-03T00:09:44.645Z,50.60
2018-03-03T00:12:12.296Z,50.90
2018-03-03T00:14:39.835Z,50.90
2018-03-03T00:17:07.403Z,51.00
2018-03-03T00:19:34.965Z,51.50
2018-03-03T00:22:03.767Z,50.90
2018-03-03T00:24:31.333Z,50.80
2018-03-03T00:26:59.128Z,50.80
2018-03-03T00:29:26.658Z,50.80
2018-03-03T00:31:54.873Z,50.80
2018-03-03T00:34:22.416Z,51.00
2018-03-03T00:36:49.951Z,51.00
2018-03-03T00:39:17.512Z,50.90
2018-03-03T00:41:45.100Z,51.70
2018-03-03T00:44:12.671Z,51.00
2018-03-03T00:46:40.209Z,51.00
2018-03-03T00:49:07.812Z,51.20
2018-03-03T00:51:36.099Z,51.30
2018-03-03T00:54:03.681Z,51.20
2018-03-03T00:56:31.228Z,51.20
2018-03-03T00:58:58.790Z,51.10
2018-03-03T01:01:26.315Z,51.20
2018-03-03T01:03:53.888Z,51.30
2018-03-03T01:06:21.420Z,50.90
2018-03-03T01:08:48.992Z,51.10
2018-03-03T01:11:16.562Z,51.30
2018-03-03T01:13:44.111Z,51.50
2018-03-03T01:16:11.742Z,51.40
2018-03-03T01:18:39.264Z,51.30
2018-03-03T01:21:06.865Z,51.50
2018-03-03T01:23:34.423Z,51.60
2018-03-03T01:26:01.953Z,51.60
2018-03-03T01:28:29.494Z,51.70
2018-03-03T01:30:57.391Z,51.70
2018-03-03T01:33:25.054Z,51.70
2018-03-03T01:35:52.645Z,51.60
2018-03-03T01:38:20.164Z,51.70
2018-03-03T01:40:48.498Z,51.80
2018-03-03T01:43:16.047Z,52.10
2018-03-03T01:45:43.615Z,52.20
2018-03-03T01:48:11.319Z,52.30
2018-03-03T01:50:39.028Z,52.40
2018-03-03T01:53:06.608Z,52.50
2018-03-03T01:55:34.132Z,52.50
2018-03-03T01:58:01.777Z,53.00
2018-03-03T02:00:29.339Z,52.40
2018-03-03T02:02:56.887Z,52.30
2018-03-03T02:05:24.481Z,52.20
2018-03-03T02:07:52.007Z,52.10
2018-03-03T02:10:19.580Z,52.30
2018-03-03T02:12:47.199Z,52.20
2018-03-03T02:15:15.587Z,52.10
2018-03-03T02:17:43.863Z,52.10
2018-03-03T02:20:11.406Z,52.10
2018-03-03T02:22:39.708Z,51.80
2018-03-03T02:25:07.482Z,51.80
2018-03-03T02:27:34.999Z,51.80
2018-03-03T02:30:03.388Z,51.80
2018-03-03T02:32:31.710Z,51.90
2018-03-03T02:34:59.240Z,51.90
2018-03-03T02:37:27.555Z,51.60
2018-03-03T02:39:55.414Z,51.60
2018-03-03T02:42:22.944Z,51.40
2018-03-03T02:44:50.483Z,51.40
2018-03-03T02:47:18.054Z,51.40
2018-03-03T02:49:46.372Z,51.60
2018-03-03T02:52:13.904Z,51.60
2018-03-03T02:54:41.463Z,51.90
2018-03-03T02:57:09.943Z,52.20
2018-03-03T02:59:37.743Z,52.10
2018-03-03T03:02:05.299Z,52.20
2018-03-03T03:04:32.859Z,52.80
2018-03-03T03:07:00.432Z,52.80
2018-03-03T03:09:27.959Z,52.70
2018-03-03T03:11:55.558Z,52.90
2018-03-03T03:14:23.874Z,52.50
2018-03-03T03:16:51.397Z,52.60
2018-03-03T03:19:18.982Z,52.40
2018-03-03T03:21:47.329Z,52.20
2018-03-03T03:24:14.892Z,52.20
2018-03-03T03:26:42.455Z,52.20
2018-03-03T03:29:09.990Z,52.20
2018-03-03T03:31:37.554Z,52.30
2018-03-03T03:34:05.114Z,52.40
2018-03-03T03:36:32.690Z,52.40
2018-03-03T03:39:00.249Z,52.50
2018-03-03T03:41:27.798Z,52.70
2018-03-03T03:43:56.128Z,52.70
2018-03-03T03:46:23.693Z,52.70
2018-03-03T03:48:51.241Z,52.70
2018-03-03T03:51:19.639Z,52.80
2018-03-03T03:53:47.956Z,53.00
2018-03-03T03:56:15.568Z,53.00
2018-03-03T03:58:43.134Z,53.00
2018-03-03T04:01:10.704Z,53.10
2018-03-03T04:03:39.132Z,53.00
2018-03-03T04:06:06.728Z,53.00
2018-03-03T04:08:34.253Z,52.80
2018-03-03T04:11:01.809Z,52.90
2018-03-03T04:13:29.376Z,52.90
2018-03-03T04:15:57.702Z,52.50
2018-03-03T04:18:25.277Z,52.50
2018-03-03T04:20:52.816Z,52.10
2018-03-03T04:23:20.380Z,51.70
2018-03-03T04:25:48.839Z,51.60
2018-03-03T04:28:16.402Z,51.60
2018-03-03T04:30:44.745Z,51.50
2018-03-03T04:33:12.645Z,51.50
2018-03-03T04:35:40.249Z,51.60
2018-03-03T04:38:07.827Z,51.50
2018-03-03T04:40:35.385Z,51.60
2018-03-03T04:43:02.977Z,51.60
2018-03-03T04:45:31.349Z,51.40
2018-03-03T04:47:58.945Z,51.40
2018-03-03T04:50:27.667Z,51.50
2018-03-03T04:52:55.237Z,51.50
2018-03-03T04:55:23.086Z,51.60
2018-03-03T04:57:50.650Z,51.80
2018-03-03T05:00:33.165Z,52.40
2018-03-03T05:03:21.590Z,51.70
2018-03-03T05:05:52.598Z,51.50
2018-03-03T05:08:25.893Z,51.60
2018-03-03T05:10:54.080Z,51.70
2018-03-03T05:13:27.224Z,51.70
2018-03-03T05:16:00.338Z,51.90
2018-03-03T05:18:33.620Z,51.90
2018-03-03T05:21:06.888Z,52.00
2018-03-03T05:23:39.992Z,51.90
2018-03-03T05:26:13.121Z,51.90
2018-03-03T05:28:46.419Z,51.90
2018-03-03T05:34:19.745Z,51.90
2018-03-03T05:36:55.741Z,51.80
2018-03-03T05:39:40.977Z,51.90
2018-03-03T05:42:14.286Z,51.50
2018-03-03T05:44:47.544Z,51.80
2018-03-03T05:47:34.216Z,51.90
2018-03-03T05:50:07.455Z,51.90
2018-03-03T05:52:49.911Z,51.90
2018-03-03T05:55:34.243Z,52.00
2018-03-03T05:58:07.496Z,51.90
2018-03-03T06:03:55.505Z,51.70
2018-03-03T06:06:41.835Z,51.60
2018-03-03T06:09:11.444Z,51.60
2018-03-03T06:11:39.033Z,51.70
2018-03-03T06:14:06.596Z,51.60
2018-03-03T06:16:34.929Z,52.10
2018-03-03T06:19:02.489Z,51.90
2018-03-03T06:21:30.101Z,52.00
2018-03-03T06:23:57.714Z,51.70
2018-03-03T06:26:25.356Z,51.60
2018-03-03T06:28:52.910Z,51.60
2018-03-03T06:31:20.473Z,51.60
2018-03-03T06:33:48.028Z,51.30
2018-03-03T06:36:15.590Z,51.30
2018-03-03T06:38:43.189Z,51.40
2018-03-03T06:41:10.725Z,51.50
2018-03-03T06:43:38.292Z,51.50
2018-03-03T06:46:05.834Z,51.90
2018-03-03T06:48:33.408Z,52.00
2018-03-03T06:51:01.034Z,51.80
2018-03-03T06:53:28.565Z,51.60
2018-03-03T06:55:56.141Z,51.60
2018-03-03T06:58:24.478Z,51.70
2018-03-03T07:00:52.065Z,51.70
2018-03-03T07:03:19.650Z,51.80
2018-03-03T07:05:47.224Z,51.70
2018-03-03T07:08:14.761Z,52.00
2018-03-03T07:10:42.368Z,52.10
2018-03-03T07:13:09.913Z,52.50
2018-03-03T07:15:37.506Z,52.20
2018-03-03T07:18:05.029Z,52.50
2018-03-03T07:20:32.589Z,52.60
2018-03-03T07:23:00.248Z,52.80
2018-03-03T07:25:27.790Z,53.10
2018-03-03T07:27:55.348Z,53.00
2018-03-03T07:30:22.928Z,52.70
2018-03-03T07:32:50.488Z,53.00
2018-03-03T07:35:18.100Z,52.90
2018-03-03T07:37:45.624Z,53.30
2018-03-03T07:40:13.416Z,53.20
2018-03-03T07:42:40.994Z,53.30
2018-03-03T07:45:08.625Z,53.30
2018-03-03T07:47:36.459Z,53.30
2018-03-03T07:50:04.002Z,53.30
2018-03-03T07:52:31.608Z,53.20
2018-03-03T07:54:59.152Z,53.10
2018-03-03T07:57:26.750Z,53.10
2018-03-03T07:59:54.335Z,53.00
2018-03-03T08:02:21.953Z,52.70
2018-03-03T08:04:49.517Z,52.80
2018-03-03T08:07:17.093Z,52.80
2018-03-03T08:09:44.676Z,52.70
2018-03-03T08:12:12.259Z,52.40
2018-03-03T08:14:39.931Z,52.50
2018-03-03T08:17:07.662Z,52.20
2018-03-03T08:19:35.210Z,52.20
2018-03-03T08:22:03.522Z,51.80
2018-03-03T08:24:31.162Z,51.70
2018-03-03T08:26:58.711Z,51.70
2018-03-03T08:29:26.279Z,51.60
2018-03-03T08:31:53.862Z,51.40
2018-03-03T08:34:21.548Z,51.20
2018-03-03T08:36:49.086Z,51.20
2018-03-03T08:39:16.716Z,51.10
2018-03-03T08:41:45.114Z,51.10
2018-03-03T08:44:12.790Z,51.00
2018-03-03T08:46:40.881Z,51.00
2018-03-03T08:49:08.431Z,51.00
2018-03-03T08:51:36.048Z,51.00
2018-03-03T08:54:03.582Z,51.10
2018-03-03T08:56:31.146Z,50.90
2018-03-03T08:58:58.738Z,51.10
2018-03-03T09:01:26.282Z,50.90
2018-03-03T09:03:54.874Z,50.30
2018-03-03T09:06:22.772Z,50.30
2018-03-03T09:08:50.321Z,50.20
2018-03-03T09:11:17.882Z,50.00
2018-03-03T09:13:45.468Z,50.00
2018-03-03T09:16:13.137Z,49.80
2018-03-03T09:18:40.705Z,49.90
2018-03-03T09:21:08.279Z,50.00
2018-03-03T09:23:35.962Z,50.00
2018-03-03T09:26:04.308Z,49.80
2018-03-03T09:28:31.932Z,49.80
2018-03-03T09:30:59.646Z,49.80
2018-03-03T09:33:27.216Z,49.70
2018-03-03T09:35:55.538Z,49.50
2018-03-03T09:38:23.173Z,49.50
2018-03-03T09:40:50.801Z,49.50
2018-03-03T09:43:18.382Z,49.50
2018-03-03T09:45:45.948Z,49.80
2018-03-03T09:48:13.545Z,49.90
2018-03-03T09:50:41.148Z,49.70
2018-03-03T09:53:08.733Z,50.00
2018-03-03T09:55:37.048Z,49.80
2018-03-03T09:58:04.670Z,49.80
2018-03-03T10:00:33.062Z,49.90
2018-03-03T10:03:00.651Z,49.90
2018-03-03T10:05:28.206Z,49.70
2018-03-03T10:07:55.826Z,49.70
2018-03-03T10:10:23.430Z,49.90
2018-03-03T10:12:51.054Z,50.20
2018-03-03T10:15:18.658Z,50.30
2018-03-03T10:17:46.224Z,50.40
2018-03-03T10:20:13.821Z,50.40
2018-03-03T10:22:42.199Z,50.40
2018-03-03T10:25:10.545Z,50.40
2018-03-03T10:27:38.172Z,50.20
2018-03-03T10:30:05.859Z,50.20
2018-03-03T10:32:33.627Z,50.20
2018-03-03T10:35:01.245Z,50.00
2018-03-03T10:37:28.860Z,50.20
2018-03-03T10:39:56.414Z,50.30
2018-03-03T10:42:23.949Z,50.10
2018-03-03T10:44:51.624Z,50.00
2018-03-03T10:47:19.246Z,50.10
2018-03-03T10:49:47.670Z,50.60
2018-03-03T10:52:15.233Z,50.60
2018-03-03T10:54:42.817Z,50.60
2018-03-03T10:57:10.623Z,50.40
2018-03-03T10:59:38.976Z,50.30
2018-03-03T11:02:07.331Z,50.40
2018-03-03T11:04:34.862Z,50.40
2018-03-03T11:07:02.443Z,50.50
2018-03-03T11:09:30.001Z,50.50
2018-03-03T11:11:57.594Z,50.20
2018-03-03T11:14:25.172Z,50.40
2018-03-03T11:16:53.044Z,50.20
2018-03-03T11:19:20.576Z,50.10
2018-03-03T11:21:48.160Z,50.10
2018-03-03T11:24:15.960Z,50.00
2018-03-03T11:26:43.480Z,50.10
2018-03-03T11:29:11.813Z,49.90
2018-03-03T11:31:39.376Z,49.90
2018-03-03T11:34:06.951Z,50.00
2018-03-03T11:36:34.487Z,50.00
2018-03-03T11:39:02.066Z,50.10
2018-03-03T11:41:29.661Z,49.80
2018-03-03T11:43:57.232Z,49.70
2018-03-03T11:46:24.769Z,49.60
2018-03-03T11:48:52.326Z,49.70
2018-03-03T11:51:20.575Z,49.50
2018-03-03T11:53:48.208Z,49.80
2018-03-03T11:56:15.741Z,49.60
2018-03-03T11:58:43.614Z,49.40
2018-03-03T12:01:11.190Z,49.40
2018-03-03T12:03:38.802Z,49.50
2018-03-03T12:06:06.361Z,49.40
2018-03-03T12:08:33.934Z,49.30
2018-03-03T12:11:02.265Z,49.60
2018-03-03T12:13:29.844Z,49.00
2018-03-03T12:15:57.435Z,49.40
2018-03-03T12:18:25.273Z,49.00
2018-03-03T12:20:52.857Z,48.80
2018-03-03T12:23:20.473Z,48.80
2018-03-03T12:25:48.084Z,48.80
2018-03-03T12:28:15.681Z,48.80
2018-03-03T12:30:43.297Z,49.50
2018-03-03T12:33:10.867Z,48.70
2018-03-03T12:35:38.459Z,48.60
2018-03-03T12:38:06.754Z,48.50
2018-03-03T12:40:34.337Z,48.40
2018-03-03T12:43:01.926Z,48.60
2018-03-03T12:45:29.472Z,48.50
2018-03-03T12:47:57.099Z,48.40
2018-03-03T12:50:25.048Z,48.60
2018-03-03T12:52:52.683Z,48.60
2018-03-03T12:55:20.220Z,48.60
2018-03-03T12:57:48.956Z,48.60
2018-03-03T13:00:16.537Z,48.40
2018-03-03T13:02:44.064Z,48.60
2018-03-03T13:05:11.661Z,48.50
2018-03-03T13:07:39.258Z,48.60
2018-03-03T13:10:06.823Z,48.20
2018-03-03T13:12:35.152Z,48.20
2018-03-03T13:15:02.748Z,48.20
2018-03-03T13:17:30.285Z,48.20
2018-03-03T13:19:57.929Z,48.10
2018-03-03T13:22:25.523Z,47.70
2018-03-03T13:24:54.060Z,47.60
2018-03-03T13:27:21.620Z,48.10
2018-03-03T13:29:49.204Z,47.40
2018-03-03T13:32:16.784Z,47.30
2018-03-03T13:34:44.322Z,47.20
2018-03-03T13:37:11.907Z,47.10
2018-03-03T13:39:39.430Z,47.00
2018-03-03T13:42:07.160Z,47.00
2018-03-03T13:44:35.463Z,47.10
2018-03-03T13:47:02.993Z,47.00
2018-03-03T13:49:31.325Z,47.00
2018-03-03T13:51:58.933Z,46.90
2018-03-03T13:54:26.498Z,47.00
2018-03-03T13:56:54.041Z,46.90
2018-03-03T13:59:22.422Z,47.50
2018-03-03T14:01:50.727Z,47.30
2018-03-03T14:04:18.316Z,47.30
2018-03-03T14:06:45.917Z,47.20
2018-03-03T14:09:13.478Z,47.20
2018-03-03T14:11:41.849Z,47.10
2018-03-03T14:14:10.201Z,47.20
2018-03-03T14:16:37.866Z,47.20
2018-03-03T14:19:05.415Z,47.00
2018-03-03T14:21:33.647Z,46.90
2018-03-03T14:24:01.306Z,46.90
2018-03-03T14:26:28.940Z,46.80
2018-03-03T14:28:56.503Z,46.80
2018-03-03T14:31:24.834Z,46.90
2018-03-03T14:33:52.471Z,46.90
2018-03-03T14:36:20.013Z,46.80
2018-03-03T14:38:47.574Z,46.80
2018-03-03T14:41:15.897Z,46.70
2018-03-03T14:43:43.940Z,46.70
2018-03-03T14:46:11.519Z,46.40
2018-03-03T14:48:39.082Z,46.30
2018-03-03T14:51:06.640Z,46.50
2018-03-03T14:53:34.262Z,46.40
2018-03-03T14:56:02.563Z,46.20
2018-03-03T14:58:30.121Z,46.20
2018-03-03T15:00:57.699Z,46.30
2018-03-03T15:03:25.241Z,46.20
2018-03-03T15:05:52.797Z,46.50
2018-03-03T15:08:20.376Z,46.50
2018-03-03T15:10:47.937Z,46.50
2018-03-03T15:13:16.269Z,46.70
2018-03-03T15:15:44.604Z,46.80
2018-03-03T15:18:12.185Z,46.80
2018-03-03T15:20:39.762Z,46.80
2018-03-03T15:23:07.308Z,46.80
2018-03-03T15:25:34.906Z,47.00
2018-03-03T15:28:02.453Z,47.00
2018-03-03T15:30:30.019Z,47.10
2018-03-03T15:32:58.325Z,47.20
2018-03-03T15:35:25.895Z,47.20
2018-03-03T15:37:53.508Z,47.40
2018-03-03T15:40:21.094Z,47.30
2018-03-03T15:42:48.655Z,47.50
2018-03-03T15:45:16.190Z,47.40
2018-03-03T15:47:43.790Z,47.20
2018-03-03T15:50:11.345Z,47.20
2018-03-03T15:52:38.926Z,47.40
2018-03-03T15:55:06.481Z,47.40
2018-03-03T15:57:34.090Z,47.50
2018-03-03T16:00:01.688Z,47.70
2018-03-03T16:02:29.249Z,47.90
2018-03-03T16:04:56.828Z,47.80
2018-03-03T16:07:24.376Z,47.60
2018-03-03T16:09:51.930Z,47.50
2018-03-03T16:12:19.564Z,47.60
2018-03-03T16:14:47.930Z,47.90
2018-03-03T16:17:16.298Z,47.90
2018-03-03T16:19:44.628Z,48.10
2018-03-03T16:22:12.210Z,48.10
2018-03-03T16:24:39.776Z,48.20
2018-03-03T16:27:07.366Z,48.30
2018-03-03T16:29:35.753Z,48.40
2018-03-03T16:32:04.102Z,48.60
2018-03-03T16:34:31.695Z,48.60
2018-03-03T16:36:59.256Z,48.40
2018-03-03T16:39:26.811Z,48.60
2018-03-03T16:41:55.254Z,48.70
2018-03-03T16:44:23.740Z,48.70
2018-03-03T16:46:51.370Z,48.70
2018-03-03T16:49:18.909Z,49.00
2018-03-03T16:51:46.595Z,48.90
2018-03-03T16:54:14.193Z,48.80
2018-03-03T16:56:41.788Z,48.80
2018-03-03T16:59:10.125Z,49.40
2018-03-03T17:01:37.675Z,49.40
2018-03-03T17:04:05.228Z,49.60
2018-03-03T17:06:32.785Z,49.80
2018-03-03T17:09:00.399Z,49.70
2018-03-03T17:11:27.988Z,49.70
2018-03-03T17:13:55.567Z,49.90
2018-03-03T17:16:23.198Z,49.80
2018-03-03T17:18:50.783Z,49.90
2018-03-03T17:21:18.339Z,50.00
2018-03-03T17:23:45.940Z,49.90
2018-03-03T17:26:13.928Z,50.10
2018-03-03T17:28:41.527Z,50.10
2018-03-03T17:31:09.163Z,50.20
2018-03-03T17:33:36.729Z,50.20
2018-03-03T17:36:04.297Z,50.30
2018-03-03T17:38:32.753Z,50.40
2018-03-03T17:41:00.302Z,50.50
2018-03-03T17:43:28.653Z,50.60
2018-03-03T17:45:56.201Z,50.50
2018-03-03T17:48:23.781Z,50.40
2018-03-03T17:50:51.409Z,50.30
2018-03-03T17:53:18.948Z,50.50
2018-03-03T17:55:47.205Z,50.30
2018-03-03T17:58:14.749Z,50.20
2018-03-03T18:00:42.322Z,50.50
2018-03-03T18:03:09.844Z,50.40
2018-03-03T18:05:37.441Z,50.40
2018-03-03T18:08:04.986Z,50.50
2018-03-03T18:10:32.550Z,50.40
2018-03-03T18:13:00.254Z,50.40
2018-03-03T18:15:27.796Z,50.50
2018-03-03T18:17:56.257Z,50.50
2018-03-03T18:20:24.189Z,50.40
2018-03-03T18:22:51.787Z,50.40
2018-03-03T18:25:19.493Z,51.10
2018-03-03T18:27:47.055Z,50.30
2018-03-03T18:30:14.573Z,50.40
2018-03-03T18:32:42.132Z,50.50
2018-03-03T18:35:10.485Z,50.70
2018-03-03T18:37:38.021Z,50.50
2018-03-03T18:40:05.565Z,50.50
2018-03-03T18:42:33.126Z,50.70
2018-03-03T18:45:01.057Z,51.00
2018-03-03T18:47:33.633Z,51.10
2018-03-03T18:50:01.964Z,51.50
2018-03-03T18:52:29.588Z,51.40
2018-03-03T18:54:57.143Z,51.60
2018-03-03T18:57:24.804Z,51.50
2018-03-03T18:59:52.381Z,51.70
2018-03-03T19:02:19.973Z,51.60
2018-03-03T19:04:47.513Z,51.60
2018-03-03T19:07:15.099Z,51.40
2018-03-03T19:09:42.654Z,51.40
2018-03-03T19:12:10.213Z,51.50
2018-03-03T19:14:37.782Z,51.70
2018-03-03T19:17:05.356Z,51.90
2018-03-03T19:19:32.929Z,52.10
2018-03-03T19:22:01.367Z,52.10
2018-03-03T19:24:28.911Z,52.30
2018-03-03T19:26:56.491Z,52.60
2018-03-03T19:29:24.036Z,52.80
2018-03-03T19:31:51.617Z,52.90
2018-03-03T19:34:19.202Z,52.60
2018-03-03T19:36:46.755Z,53.00
2018-03-03T19:39:15.333Z,53.30
2018-03-03T19:41:43.000Z,53.30
2018-03-03T19:44:10.654Z,53.40
2018-03-03T19:46:38.239Z,53.70
2018-03-03T19:49:05.837Z,53.80
2018-03-03T19:51:33.442Z,53.70
2018-03-03T19:54:01.046Z,53.70
2018-03-03T19:56:28.610Z,53.50
2018-03-03T19:58:56.211Z,53.50
2018-03-03T20:01:23.794Z,53.40
2018-03-03T20:03:51.404Z,53.40
2018-03-03T20:06:19.005Z,53.20
2018-03-03T20:08:46.601Z,53.40
2018-03-03T20:11:14.143Z,53.60
2018-03-03T20:13:41.720Z,53.60
2018-03-03T20:16:09.514Z,53.60
2018-03-03T20:18:37.082Z,53.80
2018-03-03T20:21:04.657Z,54.20
2018-03-03T20:23:32.215Z,54.20
2018-03-03T20:25:59.776Z,54.20
2018-03-03T20:28:27.332Z,54.30
2018-03-03T20:30:54.870Z,54.40
2018-03-03T20:33:22.595Z,54.60
2018-03-03T20:35:50.917Z,54.70
2018-03-03T20:38:18.500Z,54.60
2018-03-03T20:40:46.075Z,54.90
2018-03-03T20:43:13.664Z,55.10
2018-03-03T20:45:41.219Z,55.90
2018-03-03T20:48:08.774Z,56.50
2018-03-03T20:50:36.370Z,56.60
2018-03-03T20:53:04.136Z,56.70
2018-03-03T20:55:31.707Z,56.90
2018-03-03T20:57:59.262Z,57.00
2018-03-03T21:00:26.832Z,57.50
2018-03-03T21:02:54.413Z,57.60
2018-03-03T21:05:22.070Z,57.60
2018-03-03T21:07:49.643Z,57.80
2018-03-03T21:10:17.260Z,57.80
2018-03-03T21:12:47.386Z,57.80
2018-03-03T21:15:14.953Z,58.00
2018-03-03T21:17:42.529Z,58.30
2018-03-03T21:20:10.125Z,58.10
2018-03-03T21:22:38.438Z,58.60
2018-03-03T21:25:06.008Z,58.50
2018-03-03T21:27:33.568Z,58.30
2018-03-03T21:30:01.149Z,58.60
2018-03-03T21:32:28.735Z,59.30
2018-03-03T21:34:56.301Z,59.10
2018-03-03T21:37:23.882Z,59.20
2018-03-03T21:39:51.460Z,59.10
2018-03-03T21:42:19.017Z,59.10
2018-03-03T21:44:46.578Z,59.20
2018-03-03T21:47:14.155Z,59.30
2018-03-03T21:49:41.736Z,59.40
2018-03-03T21:52:09.309Z,59.40
2018-03-03T21:54:36.836Z,59.20
2018-03-03T21:57:04.374Z,59.30
2018-03-03T21:59:32.193Z,59.40
2018-03-03T22:01:59.745Z,59.40
2018-03-03T22:04:27.331Z,59.60
2018-03-03T22:06:54.909Z,59.50
2018-03-03T22:09:23.205Z,59.40
2018-03-03T22:11:50.755Z,59.60
2018-03-03T22:14:18.374Z,59.70
2018-03-03T22:16:45.985Z,59.80
2018-03-03T22:19:13.512Z,60.10
2018-03-03T22:21:41.089Z,59.90
2018-03-03T22:24:08.627Z,59.90
2018-03-03T22:26:37.413Z,60.10
2018-03-03T22:29:04.950Z,60.10
2018-03-03T22:31:32.570Z,59.80
2018-03-03T22:34:00.234Z,59.90
2018-03-03T22:36:27.803Z,60.10
2018-03-03T22:38:55.437Z,60.00
2018-03-03T22:41:22.973Z,59.90
2018-03-03T22:43:51.328Z,59.90
2018-03-03T22:46:18.873Z,59.90
2018-03-03T22:48:46.470Z,60.20
2018-03-03T22:51:14.051Z,60.20
2018-03-03T22:53:42.001Z,60.10
2018-03-03T22:56:09.612Z,60.20
2018-03-03T22:58:37.163Z,60.30
2018-03-03T23:01:04.733Z,60.20
2018-03-03T23:03:32.308Z,60.00
2018-03-03T23:06:00.104Z,59.90
2018-03-03T23:08:27.610Z,59.80
2018-03-03T23:10:55.145Z,60.00
2018-03-03T23:13:22.731Z,60.20
2018-03-03T23:15:50.329Z,59.90
2018-03-03T23:18:17.865Z,59.90
2018-03-03T23:20:45.433Z,60.10
2018-03-03T23:23:12.973Z,59.80
2018-03-03T23:25:40.641Z,59.70
2018-03-03T23:28:08.246Z,59.80
2018-03-03T23:30:35.806Z,59.80
2018-03-03T23:33:04.143Z,59.80
2018-03-03T23:35:31.816Z,59.70
2018-03-03T23:38:00.138Z,59.70
2018-03-03T23:40:27.733Z,59.70
2018-03-03T23:42:55.303Z,59.50
2018-03-03T23:45:22.861Z,59.50
2018-03-03T23:47:50.430Z,59.50
2018-03-03T23:50:18.083Z,59.80
2018-03-03T23:52:45.637Z,59.90
2018-03-03T23:55:13.186Z,60.00
2018-03-03T23:57:40.833Z,60.10
